Time;durP1;ratioP1;P1;durP2;ratioP2;P2;SDS_P1;SDS_P2;PMS_P1;PMS_P2;Temp;Humidity;BMP_temperature;BMP_pressure;BME280_temperature;BME280_humidity;BME280_pressure;Samples;Min_cycle;Max_cycle;Signal;HPM_P1;HPM_P2
2022/02/13 00:01:35;;;;;;;;;30.00;29.00;;;;;-147.17;81.30;50603.88;4989527;28;52785;-63
2022/02/13 00:04:00;;;;;;;;;31.00;29.00;;;;;-147.17;81.20;50611.75;4991820;28;51004;-61
2022/02/13 00:06:25;;;;;;;;;29.50;28.50;;;;;-147.17;80.91;50607.81;4991864;28;51252;-62
2022/02/13 00:08:51;;;;;;;;;33.00;26.25;;;;;-147.17;81.03;50556.63;4989129;28;51351;-62
2022/02/13 00:11:17;;;;;;;;;33.50;33.00;;;;;-147.17;81.13;50605.84;4991777;28;51106;-62
2022/02/13 00:13:42;;;;;;;;;29.00;26.25;;;;;-147.17;81.29;50599.94;4992327;28;50952;-62
2022/02/13 00:16:08;;;;;;;;;34.75;32.50;;;;;-147.17;82.06;50568.44;4992071;28;50951;-63
2022/02/13 00:18:33;;;;;;;;;29.75;28.00;;;;;-147.17;82.38;50576.31;4990658;28;50943;-62
2022/02/13 00:20:59;;;;;;;;;27.75;26.25;;;;;-147.17;82.23;50570.41;4987014;28;51331;-62
2022/02/13 00:23:24;;;;;;;;;38.25;36.50;;;;;-147.17;82.85;50596.00;4991005;28;51500;-63
2022/02/13 00:25:49;;;;;;;;;31.75;26.25;;;;;-147.17;82.68;50590.09;4992705;28;51130;-63
2022/02/13 00:28:15;;;;;;;;;27.25;26.25;;;;;-147.17;83.11;50592.06;4992862;28;51027;-64
2022/02/13 00:30:46;;;;;;;;;27.00;23.50;;;;;-147.17;83.77;50578.28;4991334;28;51991;-63
2022/02/13 00:33:13;;;;;;;;;27.75;26.75;;;;;-147.17;83.59;50574.34;4991146;28;51251;-63
2022/02/13 00:35:38;;;;;;;;;28.50;25.75;;;;;-147.17;83.90;50578.28;4968126;28;51191;-61
2022/02/13 00:38:04;;;;;;;;;26.50;23.75;;;;;-147.17;84.15;50580.25;4992355;28;51013;-62
2022/02/13 00:40:30;;;;;;;;;32.75;29.75;;;;;-147.17;84.13;50568.44;4990207;28;51839;-62
2022/02/13 00:42:55;;;;;;;;;29.75;28.75;;;;;-147.17;84.25;50568.44;4986496;28;51309;-63
2022/02/13 00:45:21;;;;;;;;;29.25;28.50;;;;;-147.17;84.99;50544.81;4992570;28;51031;-63
2022/02/13 00:47:46;;;;;;;;;30.75;27.50;;;;;-147.17;85.19;50574.34;4992161;28;51301;-63
2022/02/13 00:50:11;;;;;;;;;26.25;26.00;;;;;-147.17;84.86;50588.13;4990799;28;51830;-62
2022/02/13 00:52:37;;;;;;;;;32.00;30.00;;;;;-147.17;85.10;50580.25;4987180;28;51458;-62
2022/02/13 00:55:02;;;;;;;;;31.50;29.00;;;;;-147.17;85.23;50578.28;4992298;28;51106;-63
2022/02/13 00:57:28;;;;;;;;;32.75;31.50;;;;;-147.17;85.16;50562.53;4992355;28;51369;-63
2022/02/13 00:59:53;;;;;;;;;25.50;25.25;;;;;-147.17;84.74;50584.19;4992082;28;51357;-63
2022/02/13 01:02:18;;;;;;;;;38.00;32.00;;;;;-147.17;85.45;50540.88;4990069;28;51245;-63
2022/02/13 01:04:43;;;;;;;;;31.00;29.75;;;;;-147.17;85.55;50560.56;4992387;28;51051;-63
2022/02/13 01:07:09;;;;;;;;;28.25;26.50;;;;;-147.17;84.94;50592.06;4992374;28;51115;-62
2022/02/13 01:09:34;;;;;;;;;25.75;25.00;;;;;-147.17;84.96;50574.34;4992341;28;51000;-62
2022/02/13 01:12:00;;;;;;;;;30.25;26.50;;;;;-147.17;85.72;50572.38;4991217;28;50879;-63
2022/02/13 01:14:25;;;;;;;;;32.50;28.75;;;;;-147.17;85.78;50533.00;4973912;28;51147;-62
2022/02/13 01:16:51;;;;;;;;;29.75;28.25;;;;;-147.17;85.69;50521.19;4991393;28;51428;-63
2022/02/13 01:19:16;;;;;;;;;29.25;26.50;;;;;-147.17;86.31;50564.50;4991695;28;51604;-62
2022/02/13 01:21:41;;;;;;;;;29.25;28.25;;;;;-147.17;85.78;50540.88;4989295;28;51067;-62
2022/02/13 01:24:07;;;;;;;;;26.75;23.00;;;;;-147.17;86.31;50552.69;4995283;28;51135;-62
2022/02/13 01:26:32;;;;;;;;;27.25;26.00;;;;;-147.17;85.83;50554.66;4996278;28;51165;-63
2022/02/13 01:29:00;;;;;;;;;30.25;29.00;;;;;-147.17;85.93;50534.97;4978968;28;51883;-63
2022/02/13 01:31:25;;;;;;;;;26.25;25.00;;;;;-147.17;85.29;50582.22;4994737;28;51133;-63
2022/02/13 01:33:50;;;;;;;;;26.25;22.00;;;;;-147.17;85.42;50560.56;4994704;28;51013;-63
2022/02/13 01:36:16;;;;;;;;;29.00;24.25;;;;;-147.17;85.32;50570.41;4977817;28;51062;-63
2022/02/13 01:38:42;;;;;;;;;25.00;24.75;;;;;-147.17;84.79;50536.94;4994572;28;51590;-63
2022/02/13 01:41:07;;;;;;;;;22.00;21.75;;;;;-147.17;84.67;50580.25;4994425;28;51058;-63
2022/02/13 01:43:33;;;;;;;;;24.00;22.50;;;;;-147.17;84.38;50568.44;4986845;28;52809;-63
2022/02/13 01:45:59;;;;;;;;;23.75;22.50;;;;;-147.17;84.03;50568.44;4994097;28;51117;-62
2022/02/13 01:48:24;;;;;;;;;25.25;22.00;;;;;-147.17;84.63;50584.19;4994634;28;51208;-63
2022/02/13 01:50:51;;;;;;;;;24.50;24.25;;;;;-147.17;84.38;50568.44;4993448;28;51264;-64
2022/02/13 01:53:17;;;;;;;;;21.50;21.50;;;;;-147.17;83.69;50558.59;4993870;28;51172;-63
2022/02/13 01:55:47;;;;;;;;;24.75;23.50;;;;;-147.17;84.08;50572.38;4994765;28;50912;-62
2022/02/13 01:58:12;;;;;;;;;18.50;18.50;;;;;-147.17;83.77;50592.06;4994724;28;51012;-62
2022/02/13 02:00:38;;;;;;;;;21.75;19.50;;;;;-147.17;83.88;50554.66;4993043;28;51206;-62
2022/02/13 02:03:03;;;;;;;;;19.25;18.00;;;;;-147.17;83.60;50568.44;4986206;28;51580;-63
2022/02/13 02:05:29;;;;;;;;;30.25;25.00;;;;;-147.17;84.30;50548.75;4994898;28;51265;-63
2022/02/13 02:07:54;;;;;;;;;25.75;25.50;;;;;-147.17;84.32;50558.59;4992813;28;51976;-63
2022/02/13 02:10:21;;;;;;;;;26.25;24.75;;;;;-147.17;84.39;50550.72;4993395;28;51124;-63
2022/02/13 02:12:47;;;;;;;;;25.25;22.75;;;;;-147.17;84.58;50562.53;4994676;28;51079;-63
2022/02/13 02:15:13;;;;;;;;;26.00;25.00;;;;;-147.17;84.56;50607.81;4993535;28;51284;-63
2022/02/13 02:17:38;;;;;;;;;23.25;22.25;;;;;-147.17;84.73;50548.75;4985530;28;52440;-64
2022/02/13 02:20:04;;;;;;;;;22.00;20.50;;;;;-147.17;84.72;50578.28;4986952;28;51197;-62
2022/02/13 02:22:30;;;;;;;;;25.50;24.00;;;;;-147.17;84.82;50540.88;4994058;28;51092;-63
2022/02/13 02:24:55;;;;;;;;;30.75;27.00;;;;;-147.17;85.60;50527.09;4993887;28;50951;-63
2022/02/13 02:27:20;;;;;;;;;32.00;29.75;;;;;-147.17;85.83;50560.56;4993556;28;51031;-62
2022/02/13 02:29:46;;;;;;;;;28.50;25.50;;;;;-147.17;85.56;50538.91;4994330;28;51054;-63
2022/02/13 02:32:11;;;;;;;;;27.25;25.00;;;;;-147.17;85.71;50536.94;4992613;28;51118;-63
2022/02/13 02:34:41;;;;;;;;;24.75;22.75;;;;;-147.17;86.30;50578.28;4994719;28;50937;-63
2022/02/13 02:37:08;;;;;;;;;28.75;28.00;;;;;-147.17;86.33;50534.97;4993411;28;52833;-63
2022/02/13 02:39:34;;;;;;;;;26.00;24.50;;;;;-147.17;86.71;50578.28;4994606;28;50935;-63
2022/02/13 02:42:01;;;;;;;;;21.50;20.50;;;;;-147.17;86.71;50546.78;4993673;28;51172;-63
2022/02/13 02:44:27;;;;;;;;;23.75;21.25;;;;;-147.17;86.48;50548.75;4993897;28;50984;-63
2022/02/13 02:46:52;;;;;;;;;27.25;23.75;;;;;-147.17;86.93;50540.88;4993035;28;51861;-62
2022/02/13 02:49:18;;;;;;;;;23.75;21.50;;;;;-147.17;87.29;50552.69;4977661;28;51132;-62
2022/02/13 02:51:43;;;;;;;;;24.50;24.50;;;;;-147.17;87.12;50515.28;4976268;28;51267;-63
2022/02/13 02:54:10;;;;;;;;;27.50;25.25;;;;;-147.17;87.51;50531.03;4993895;28;51227;-65
2022/02/13 02:56:35;;;;;;;;;27.50;27.25;;;;;-147.17;87.59;50552.69;4976191;28;54085;-63
2022/02/13 02:59:01;;;;;;;;;28.25;28.00;;;;;-147.17;87.89;50525.13;4969980;28;51198;-63
2022/02/13 03:01:26;;;;;;;;;28.50;26.75;;;;;-147.17;88.09;50562.53;4991006;28;51057;-63
2022/02/13 03:03:52;;;;;;;;;29.00;27.50;;;;;-147.17;87.77;50540.88;4993337;28;51302;-63
2022/02/13 03:06:17;;;;;;;;;31.00;28.00;;;;;-147.17;88.17;50568.44;4993977;28;52164;-62
2022/02/13 03:08:43;;;;;;;;;34.00;30.75;;;;;-147.17;88.02;50529.06;4992600;28;51162;-63
2022/02/13 03:11:09;;;;;;;;;32.50;27.25;;;;;-147.17;88.13;50544.81;4992480;28;51332;-63
2022/02/13 03:13:35;;;;;;;;;27.25;26.50;;;;;-147.17;88.66;50513.31;4994272;28;50858;-63
2022/02/13 03:16:01;;;;;;;;;30.75;30.00;;;;;-147.17;88.55;50572.38;4993062;28;51919;-63
2022/02/13 03:18:29;;;;;;;;;27.50;26.50;;;;;-147.17;88.86;50536.94;4988265;28;51145;-63
2022/02/13 03:20:55;;;;;;;;;26.00;26.00;;;;;-147.17;88.53;50540.88;4994138;28;51216;-63
2022/02/13 03:23:21;;;;;;;;;29.75;27.00;;;;;-147.17;89.44;50552.69;4993938;28;51210;-62
2022/02/13 03:25:46;;;;;;;;;29.25;28.00;;;;;-147.17;88.91;50513.31;4993865;28;52050;-63
2022/02/13 03:28:13;;;;;;;;;27.00;27.00;;;;;-147.17;89.54;50521.19;4992925;28;51394;-63
2022/02/13 03:30:38;;;;;;;;;31.75;29.75;;;;;-147.17;89.93;50548.75;4993058;28;51082;-63
2022/02/13 03:33:04;;;;;;;;;27.25;26.25;;;;;-147.17;89.53;50538.91;4993612;28;51294;-62
2022/02/13 03:35:29;;;;;;;;;31.75;28.00;;;;;-147.17;89.74;50546.78;4975501;28;53031;-62
2022/02/13 03:37:55;;;;;;;;;28.25;26.00;;;;;-147.17;89.39;50513.31;4992319;28;51111;-63
2022/02/13 03:40:21;;;;;;;;;31.75;27.75;;;;;-147.17;89.76;50525.13;4993398;28;51006;-62
2022/02/13 03:42:46;;;;;;;;;29.25;27.00;;;;;-147.17;89.62;50529.06;4968030;28;51381;-63
2022/02/13 03:45:13;;;;;;;;;24.00;23.00;;;;;-147.17;90.06;50560.56;4993312;28;51168;-63
2022/02/13 03:47:40;;;;;;;;;27.75;25.00;;;;;-147.17;90.54;50521.19;4991975;28;51103;-63
2022/02/13 03:50:06;;;;;;;;;28.75;25.75;;;;;-147.17;90.60;50521.19;4993201;28;51318;-63
2022/02/13 03:52:31;;;;;;;;;27.75;25.75;;;;;-147.17;90.41;50533.00;4962929;28;51315;-63
2022/02/13 03:54:59;;;;;;;;;27.75;25.00;;;;;-147.17;90.66;50536.94;4993425;28;51570;-62
2022/02/13 03:57:25;;;;;;;;;22.75;20.50;;;;;-147.17;90.27;50521.19;4970940;28;51199;-62
2022/02/13 03:59:50;;;;;;;;;27.00;24.00;;;;;-147.17;90.22;50552.69;4992658;28;51165;-63
2022/02/13 04:02:16;;;;;;;;;28.00;26.75;;;;;-147.17;90.70;50525.13;4993202;28;51112;-63
2022/02/13 04:04:41;;;;;;;;;25.25;22.50;;;;;-147.17;90.67;50536.94;4993174;28;50963;-64
2022/02/13 04:07:06;;;;;;;;;29.50;27.00;;;;;-147.17;90.72;50529.06;4975134;28;51071;-63
2022/02/13 04:09:32;;;;;;;;;28.25;27.00;;;;;-147.17;90.96;50509.38;4991791;28;51290;-62
2022/02/13 04:11:58;;;;;;;;;27.00;23.75;;;;;-147.17;91.07;50521.19;4992267;28;51503;-62
2022/02/13 04:14:23;;;;;;;;;23.75;23.00;;;;;-147.17;90.88;50527.09;4992978;28;51697;-63
2022/02/13 04:16:49;;;;;;;;;25.50;24.25;;;;;-147.17;90.70;50540.88;4992897;28;51114;-63
2022/02/13 04:19:14;;;;;;;;;26.75;26.25;;;;;-147.17;91.32;50491.66;4988448;28;51079;-62
2022/02/13 04:21:39;;;;;;;;;24.25;23.75;;;;;-147.17;90.89;50529.06;4992624;28;51333;-63
2022/02/13 04:24:05;;;;;;;;;25.75;22.50;;;;;-147.17;90.98;50513.31;4992771;28;51198;-63
2022/02/13 04:26:31;;;;;;;;;25.25;23.25;;;;;-147.17;91.02;50517.25;4972688;28;51751;-63
2022/02/13 04:28:56;;;;;;;;;25.50;24.25;;;;;-147.17;90.97;50525.13;4993040;28;51350;-63
2022/02/13 04:31:22;;;;;;;;;26.50;25.50;;;;;-147.17;91.48;50525.13;4992873;28;51109;-63
2022/02/13 04:33:47;;;;;;;;;30.00;26.25;;;;;-147.17;91.53;50511.34;4992674;28;51733;-62
2022/02/13 04:36:12;;;;;;;;;24.00;23.25;;;;;-147.17;92.17;50513.31;4993023;28;50897;-63
2022/02/13 04:38:38;;;;;;;;;26.50;25.25;;;;;-147.17;91.66;50509.38;4992163;28;51190;-63
2022/02/13 04:41:03;;;;;;;;;25.00;23.50;;;;;-147.17;92.21;50511.34;4994671;28;51259;-63
2022/02/13 04:43:28;;;;;;;;;20.00;19.50;;;;;-147.17;92.48;50491.66;4982761;28;52128;-62
2022/02/13 04:45:54;;;;;;;;;25.75;22.50;;;;;-147.17;92.31;50505.44;4992909;28;50953;-64
2022/02/13 04:48:19;;;;;;;;;24.75;23.75;;;;;-147.17;92.63;50517.25;4984084;28;51200;-63
2022/02/13 04:50:45;;;;;;;;;29.25;23.25;;;;;-147.17;92.36;50548.75;4961452;28;51664;-63
2022/02/13 04:53:10;;;;;;;;;18.75;18.75;;;;;-147.17;92.56;50497.56;4992128;28;51581;-63
2022/02/13 04:55:35;;;;;;;;;22.50;20.50;;;;;-147.17;92.98;50505.44;4994045;28;51056;-62
2022/02/13 04:58:04;;;;;;;;;26.00;22.00;;;;;-147.17;92.91;50521.19;4995612;28;51175;-62
2022/02/13 05:00:30;;;;;;;;;27.50;25.25;;;;;-147.17;93.04;50505.44;4976654;28;51381;-63
2022/02/13 05:02:56;;;;;;;;;27.50;26.00;;;;;-147.17;92.82;50503.47;4978117;28;52032;-63
2022/02/13 05:05:21;;;;;;;;;28.00;24.25;;;;;-147.17;92.86;50517.25;4978280;28;50995;-62
2022/02/13 05:07:47;;;;;;;;;22.50;21.00;;;;;-147.17;93.23;50503.47;4995134;28;50980;-63
2022/02/13 05:10:12;;;;;;;;;25.00;22.50;;;;;-147.17;93.06;50485.75;4977657;28;51369;-63
2022/02/13 05:12:38;;;;;;;;;22.25;20.50;;;;;-147.17;93.33;50527.09;4995652;28;51281;-62
2022/02/13 05:15:04;;;;;;;;;21.00;20.25;;;;;-147.17;93.51;50495.59;4995162;28;51100;-63
2022/02/13 05:17:33;;;;;;;;;22.00;19.75;;;;;-147.17;93.60;50509.38;4993996;28;50965;-62
2022/02/13 05:19:58;;;;;;;;;26.75;25.00;;;;;-147.17;93.45;50519.22;4995147;28;51228;-63
2022/02/13 05:22:24;;;;;;;;;30.25;26.25;;;;;-147.17;93.61;50554.66;4995660;28;51031;-63
2022/02/13 05:24:49;;;;;;;;;24.50;24.00;;;;;-147.17;93.26;50509.38;4995575;28;51049;-63
2022/02/13 05:27:17;;;;;;;;;22.00;20.75;;;;;-147.17;93.56;50525.13;4996666;28;50908;-63
2022/02/13 05:29:42;;;;;;;;;22.00;21.00;;;;;-147.17;93.33;50485.75;4991444;28;51278;-62
2022/02/13 05:32:09;;;;;;;;;25.75;23.75;;;;;-147.17;93.73;50470.00;4995266;28;51873;-62
2022/02/13 05:34:34;;;;;;;;;26.25;22.25;;;;;-147.17;93.76;50497.56;4995434;28;51099;-64
2022/02/13 05:37:00;;;;;;;;;26.75;23.25;;;;;-147.17;93.51;50527.09;4994598;28;51106;-63
2022/02/13 05:39:25;;;;;;;;;27.25;25.50;;;;;-147.17;93.69;50519.22;4994665;28;51098;-63
2022/02/13 05:41:50;;;;;;;;;29.25;26.25;;;;;-147.17;93.62;50509.38;4995243;28;51003;-62
2022/02/13 05:44:16;;;;;;;;;24.50;22.75;;;;;-147.17;93.48;50497.56;4994141;28;50968;-62
2022/02/13 05:46:42;;;;;;;;;20.75;20.75;;;;;-147.17;93.78;50501.50;4995557;28;50980;-63
2022/02/13 05:49:08;;;;;;;;;26.75;24.75;;;;;-147.17;93.91;50521.19;4993935;28;51137;-63
2022/02/13 05:51:34;;;;;;;;;29.00;26.50;;;;;-147.17;93.49;50511.34;4995243;28;51758;-63
2022/02/13 05:54:00;;;;;;;;;24.50;24.00;;;;;-147.17;94.00;50499.53;4995195;28;51106;-63
2022/02/13 05:56:26;;;;;;;;;24.00;21.00;;;;;-147.17;93.66;50501.50;4995201;28;50936;-63
2022/02/13 05:58:51;;;;;;;;;25.25;22.50;;;;;-147.17;93.56;50515.28;4990767;28;51397;-61
2022/02/13 06:01:17;;;;;;;;;23.25;23.25;;;;;-147.17;93.72;50509.38;4994208;28;51702;-63
2022/02/13 06:03:43;;;;;;;;;22.50;21.50;;;;;-147.17;93.64;50513.31;4994287;28;51011;-63
2022/02/13 06:06:09;;;;;;;;;23.00;22.75;;;;;-147.17;93.75;50529.06;4993747;28;51070;-62
2022/02/13 06:08:34;;;;;;;;;19.25;18.00;;;;;-147.17;93.32;50503.47;4973157;28;51314;-63
2022/02/13 06:11:00;;;;;;;;;22.00;19.75;;;;;-147.17;93.71;50505.44;4994142;28;53081;-62
2022/02/13 06:13:25;;;;;;;;;19.00;17.50;;;;;-147.17;93.42;50517.25;4994931;28;51075;-63
2022/02/13 06:15:50;;;;;;;;;24.50;21.00;;;;;-147.17;93.39;50523.16;4995030;28;50957;-62
2022/02/13 06:18:16;;;;;;;;;19.50;18.50;;;;;-147.17;93.10;50540.88;4993762;28;51203;-63
2022/02/13 06:20:41;;;;;;;;;19.50;19.50;;;;;-147.17;92.63;50521.19;4976681;28;51824;-62
2022/02/13 06:23:10;;;;;;;;;21.50;20.25;;;;;-147.17;92.73;50521.19;4994688;28;50957;-63
2022/02/13 06:25:36;;;;;;;;;22.75;20.00;;;;;-147.17;92.75;50519.22;4995063;28;50876;-63
2022/02/13 06:28:02;;;;;;;;;21.25;20.75;;;;;-147.17;92.42;50548.75;4993928;28;51380;-62
2022/02/13 06:30:27;;;;;;;;;22.50;22.00;;;;;-147.17;92.56;50499.53;4983573;28;51721;-62
2022/02/13 06:32:53;;;;;;;;;16.50;15.75;;;;;-147.17;91.86;50511.34;4994192;28;50943;-63
2022/02/13 06:35:19;;;;;;;;;20.25;19.50;;;;;-147.17;92.42;50493.63;4994406;28;51086;-63
2022/02/13 06:37:45;;;;;;;;;21.75;19.75;;;;;-147.17;92.47;50517.25;4993559;28;51914;-63
2022/02/13 06:40:11;;;;;;;;;23.50;22.00;;;;;-147.17;92.00;50509.38;4988570;28;51176;-63
2022/02/13 06:42:36;;;;;;;;;21.00;19.25;;;;;-147.17;92.21;50497.56;4978149;28;51014;-62
2022/02/13 06:45:02;;;;;;;;;19.50;16.50;;;;;-147.17;92.41;50529.06;4990290;28;52277;-61
2022/02/13 06:47:27;;;;;;;;;24.25;20.25;;;;;-147.17;92.41;50491.66;4976058;28;52135;-62
2022/02/13 06:49:53;;;;;;;;;25.25;22.25;;;;;-147.17;92.76;50523.16;4993983;28;52809;-62
2022/02/13 06:52:18;;;;;;;;;14.75;11.75;;;;;-147.17;92.45;50509.38;4993526;28;51334;-63
2022/02/13 06:54:44;;;;;;;;;24.50;21.00;;;;;-147.17;92.03;50485.75;4963642;28;51091;-62
2022/02/13 06:57:09;;;;;;;;;24.50;19.50;;;;;-147.17;91.89;50521.19;4994339;28;51173;-61
2022/02/13 06:59:34;;;;;;;;;25.00;23.00;;;;;-147.17;91.61;50515.28;4993721;28;51118;-62
2022/02/13 07:02:00;;;;;;;;;24.75;22.25;;;;;-147.17;91.62;50473.94;4993389;28;51053;-63
2022/02/13 07:04:25;;;;;;;;;22.50;22.50;;;;;-147.17;92.47;50556.63;4993494;28;50902;-63
2022/02/13 07:06:50;;;;;;;;;22.75;21.50;;;;;-147.17;91.96;50523.16;4969067;28;50975;-63
2022/02/13 07:09:16;;;;;;;;;25.75;23.50;;;;;-147.17;91.91;50489.69;4987681;28;52260;-62
2022/02/13 07:11:41;;;;;;;;;22.50;19.75;;;;;-147.17;92.41;50509.38;4993433;28;50959;-63
2022/02/13 07:14:06;;;;;;;;;23.75;20.00;;;;;-147.17;92.33;50521.19;4994141;28;51104;-62
2022/02/13 07:16:32;;;;;;;;;24.00;22.00;;;;;-147.17;92.29;50521.19;4993574;28;51169;-63
2022/02/13 07:18:57;;;;;;;;;24.75;20.25;;;;;-147.17;92.38;50485.75;4988582;28;51947;-63
2022/02/13 07:21:22;;;;;;;;;24.25;23.00;;;;;-147.17;92.24;50513.31;4993259;28;51348;-63
2022/02/13 07:23:48;;;;;;;;;26.00;24.75;;;;;-147.17;92.55;50501.50;4994007;28;50891;-62
2022/02/13 07:26:13;;;;;;;;;27.75;23.75;;;;;-147.17;92.41;50538.91;4993985;28;50859;-62
2022/02/13 07:31:22;;;;;;;;;25.75;22.75;;;;;-147.17;92.33;50536.94;4993054;28;51089;-62
2022/02/13 07:33:48;;;;;;;;;22.25;20.25;;;;;-147.17;92.74;50519.22;4993825;28;51041;-62
2022/02/13 07:36:14;;;;;;;;;23.50;20.25;;;;;-147.17;92.34;50521.19;4975651;28;51792;-62
2022/02/13 07:38:39;;;;;;;;;22.00;21.25;;;;;-147.17;92.61;50529.06;4993210;28;51963;-62
2022/02/13 07:41:04;;;;;;;;;20.25;18.75;;;;;-147.17;92.51;50517.25;4993180;28;51694;-62
2022/02/13 07:43:30;;;;;;;;;34.25;32.00;;;;;-147.17;92.81;50544.81;4979419;28;51048;-63
2022/02/13 07:45:55;;;;;;;;;28.25;24.75;;;;;-147.17;92.46;50513.31;4993701;28;51130;-63
2022/02/13 07:48:21;;;;;;;;;28.75;28.50;;;;;-147.17;92.54;50531.03;4987248;28;51333;-63
2022/02/13 07:50:46;;;;;;;;;26.75;23.50;;;;;-147.17;92.10;50489.69;4992410;28;51194;-63
2022/02/13 07:53:11;;;;;;;;;22.25;21.00;;;;;-147.17;92.48;50531.03;4993049;28;51315;-63
2022/02/13 07:55:37;;;;;;;;;28.25;26.75;;;;;-147.17;91.76;50505.44;4989331;28;51301;-63
2022/02/13 07:58:02;;;;;;;;;25.00;24.75;;;;;-147.17;91.93;50517.25;4986010;28;52000;-63
2022/02/13 08:00:27;;;;;;;;;24.50;22.50;;;;;-147.17;92.06;50515.28;4976394;28;51134;-63
2022/02/13 08:02:53;;;;;;;;;21.00;19.75;;;;;-147.17;91.67;50538.91;4993080;28;51123;-63
2022/02/13 08:05:18;;;;;;;;;25.00;24.00;;;;;-147.17;92.19;50511.34;4993279;28;51076;-63
2022/02/13 08:07:49;;;;;;;;;26.75;25.00;;;;;-147.17;91.71;50525.13;4974405;28;51884;-63
2022/02/13 08:10:15;;;;;;;;;27.25;25.00;;;;;-147.17;91.02;50515.28;4996044;28;50904;-63
2022/02/13 08:12:40;;;;;;;;;23.50;22.50;;;;;-147.17;90.98;50497.56;4975724;28;51151;-64
2022/02/13 08:15:06;;;;;;;;;24.50;23.75;;;;;-147.17;90.82;50525.13;4993458;28;51079;-63
2022/02/13 08:17:32;;;;;;;;;25.75;24.00;;;;;-147.17;90.45;50550.72;4991614;28;51753;-63
2022/02/13 08:19:58;;;;;;;;;19.50;19.50;;;;;-147.17;90.74;50521.19;4992796;28;51232;-63
2022/02/13 08:22:23;;;;;;;;;27.00;24.00;;;;;-147.17;90.32;50529.06;4993162;28;51011;-63
2022/02/13 08:24:49;;;;;;;;;23.50;21.00;;;;;-147.17;89.56;50544.81;4975231;28;51230;-63
2022/02/13 08:27:14;;;;;;;;;26.50;25.75;;;;;-147.17;90.73;50533.00;4993200;28;51112;-62
2022/02/13 08:29:39;;;;;;;;;24.75;23.00;;;;;-147.17;91.05;50548.75;4992061;28;50958;-62
2022/02/13 08:32:05;;;;;;;;;23.75;23.75;;;;;-147.17;89.78;50548.75;4990532;28;51228;-61
2022/02/13 08:34:30;;;;;;;;;22.75;22.75;;;;;-147.17;88.29;50548.75;4989908;28;51464;-61
2022/02/13 08:36:56;;;;;;;;;26.25;23.50;;;;;-147.17;86.60;50578.28;4994954;28;52806;-61
2022/02/13 08:39:21;;;;;;;;;25.25;24.25;;;;;-147.17;85.37;50572.38;4989526;28;51176;-61
2022/02/13 08:41:46;;;;;;;;;27.00;25.00;;;;;-147.17;85.10;50596.00;4974378;28;51074;-62
2022/02/13 08:44:12;;;;;;;;;25.75;25.00;;;;;-147.17;84.55;50607.81;4987003;28;51113;-61
2022/02/13 08:46:37;;;;;;;;;27.25;24.75;;;;;-147.17;83.69;50655.06;4990839;28;51885;-61
2022/02/13 08:49:03;;;;;;;;;28.00;25.00;;;;;-147.17;82.30;50643.25;4991807;28;51201;-60
2022/02/13 08:51:29;;;;;;;;;24.25;23.00;;;;;-147.17;81.82;50647.19;4974010;28;51128;-61
2022/02/13 08:53:55;;;;;;;;;27.25;26.75;;;;;-147.17;81.88;50672.78;4991664;28;51289;-61
2022/02/13 08:56:20;;;;;;;;;25.75;24.75;;;;;-147.17;82.03;50684.59;4990196;28;52027;-61
2022/02/13 08:58:46;;;;;;;;;27.50;26.75;;;;;-147.17;80.23;50706.25;4992308;28;51025;-61
2022/02/13 09:01:11;;;;;;;;;27.75;27.00;;;;;-147.17;79.37;50678.69;4990005;28;51205;-61
2022/02/13 09:03:37;;;;;;;;;24.25;23.25;;;;;-147.17;78.26;50737.75;4991157;28;51266;-61
2022/02/13 09:06:03;;;;;;;;;27.50;23.75;;;;;-147.17;76.04;50785.00;4991468;28;51130;-62
2022/02/13 09:08:28;;;;;;;;;23.00;22.25;;;;;-147.17;77.58;50773.19;4994544;28;51480;-61
2022/02/13 09:10:54;;;;;;;;;27.50;27.00;;;;;-147.17;77.21;50753.50;4973635;28;51170;-61
2022/02/13 09:13:19;;;;;;;;;30.75;27.00;;;;;-147.17;76.22;50786.97;4983444;28;51012;-62
2022/02/13 09:15:45;;;;;;;;;28.75;26.75;;;;;-147.17;76.78;50773.19;4974936;28;53823;-62
2022/02/13 09:18:12;;;;;;;;;24.50;23.25;;;;;-147.17;76.30;50832.25;4990856;28;51039;-62
2022/02/13 09:20:38;;;;;;;;;24.75;23.00;;;;;-147.17;76.40;50828.31;4991469;28;51032;-62
2022/02/13 09:23:03;;;;;;;;;26.50;22.00;;;;;-147.17;74.71;50857.84;4992020;28;51297;-62
2022/02/13 09:25:29;;;;;;;;;30.00;28.00;;;;;-147.17;74.08;50879.50;4969274;28;51225;-62
2022/02/13 09:27:54;;;;;;;;;26.50;24.25;;;;;-147.17;74.35;50893.28;4990322;28;51047;-61
2022/02/13 09:30:20;;;;;;;;;23.50;22.75;;;;;-147.17;72.10;50934.63;4996452;28;51518;-62
2022/02/13 09:32:45;;;;;;;;;24.25;23.50;;;;;-147.17;72.83;50942.50;4991934;28;51115;-63
2022/02/13 09:35:11;;;;;;;;;24.00;22.75;;;;;-147.17;71.40;50999.59;4960894;28;52860;-61
2022/02/13 09:37:37;;;;;;;;;24.25;23.00;;;;;-147.17;70.37;51005.50;4992017;28;51178;-61
2022/02/13 09:40:03;;;;;;;;;22.50;21.75;;;;;-147.17;70.08;51056.69;4992093;28;51186;-61
2022/02/13 09:42:29;;;;;;;;;23.25;22.25;;;;;-147.17;68.13;51084.25;4977156;28;51390;-61
2022/02/13 09:44:54;;;;;;;;;23.50;22.50;;;;;-147.17;68.02;51149.22;4992920;28;51884;-61
2022/02/13 09:47:20;;;;;;;;;25.50;24.50;;;;;-147.17;68.31;51119.69;4993836;28;51061;-62
2022/02/13 09:49:46;;;;;;;;;27.25;26.00;;;;;-147.17;67.97;51121.66;4993444;28;50906;-62
2022/02/13 09:52:13;;;;;;;;;26.00;24.75;;;;;-147.17;67.77;51174.84;4989859;28;51528;-62
2022/02/13 09:54:39;;;;;;;;;25.25;23.50;;;;;-147.17;66.81;51176.78;4976834;28;53871;-62
2022/02/13 09:59:56;;;;;;;;;22.00;20.75;;;;;-147.17;65.47;51190.59;4994778;28;51131;-61
2022/02/13 10:02:33;;;;;;;;;45.25;34.00;;;;;-147.17;65.60;51143.31;5002593;28;51372;-61
2022/02/13 10:04:59;;;;;;;;;25.00;24.75;;;;;-147.17;65.81;51125.59;4994348;28;51067;-61
2022/02/13 10:07:24;;;;;;;;;23.25;23.25;;;;;-147.17;66.01;51131.50;4994779;28;50949;-61
2022/02/13 10:09:58;;;;;;;;;26.50;25.75;;;;;-147.17;65.43;51147.25;4994366;28;51071;-62
2022/02/13 10:12:41;;;;;;;;;23.00;22.75;;;;;-147.17;64.85;51103.94;4994560;28;51025;-61
2022/02/13 10:15:22;;;;;;;;;26.00;23.75;;;;;-147.17;65.93;51076.38;4976247;28;53880;-61
2022/02/13 10:17:59;;;;;;;;;27.00;23.75;;;;;-147.17;66.11;51088.19;4993959;28;51051;-61
2022/02/13 10:20:32;;;;;;;;;25.75;22.75;;;;;-147.17;65.53;51068.50;4971048;28;51262;-61
2022/02/13 10:23:08;;;;;;;;;25.50;23.00;;;;;-147.17;65.47;51042.91;4980652;28;51138;-63
2022/02/13 10:25:34;;;;;;;;;25.75;22.50;;;;;-147.17;64.86;51107.88;4994387;28;52016;-62
2022/02/13 10:28:09;;;;;;;;;25.25;22.50;;;;;-147.17;64.31;51107.88;4994917;28;51012;-62
2022/02/13 10:30:40;;;;;;;;;27.25;24.75;;;;;-147.17;65.39;51031.09;4994435;28;51305;-61
2022/02/13 10:33:15;;;;;;;;;27.00;24.75;;;;;-147.17;66.49;51031.09;4994029;28;51158;-62
2022/02/13 10:35:41;;;;;;;;;24.00;23.50;;;;;-147.17;65.77;51029.13;4994026;28;51807;-60
2022/02/13 10:38:06;;;;;;;;;25.50;24.75;;;;;-147.17;66.42;51007.47;4994042;28;51066;-62
2022/02/13 10:40:32;;;;;;;;;27.00;25.50;;;;;-147.17;66.85;50981.88;4993569;28;51218;-62
2022/02/13 10:43:07;;;;;;;;;25.75;24.75;;;;;-147.17;67.97;50985.81;4994075;28;51228;-60
2022/02/13 10:45:34;;;;;;;;;28.75;25.75;;;;;-147.17;68.28;50974.00;4963329;28;52579;-61
2022/02/13 10:48:04;;;;;;;;;25.50;23.75;;;;;-147.17;68.94;50930.69;4992594;28;51071;-61
2022/02/13 10:50:32;;;;;;;;;27.25;24.00;;;;;-147.17;69.65;50930.69;4987993;28;51190;-61
2022/02/13 10:53:01;;;;;;;;;26.25;26.00;;;;;-147.17;70.52;50879.50;4991517;28;51244;-61
2022/02/13 10:55:37;;;;;;;;;24.50;21.00;;;;;-147.17;71.76;50887.38;4993131;28;51827;-61
2022/02/13 10:58:04;;;;;;;;;25.00;22.25;;;;;-147.17;71.98;50946.44;4994343;28;51037;-62
2022/02/13 11:00:31;;;;;;;;;25.75;24.00;;;;;-147.17;71.63;50940.53;4975841;28;51103;-61
2022/02/13 11:03:01;;;;;;;;;21.50;20.00;;;;;-147.17;70.06;51056.69;4976075;28;51337;-61